Terminal Aerodrome Forecast
Issued by NWS

Home | Current Version | Previous Version | Text Only | Print | Product List | Glossary On
Versions: 1 2 3 4 5 6 7 8 9 10 11 12 13 14 15 16 17 18 19 20 21
000
FTUS44 KOUN 201740
TAFPNC
TAF
KPNC 201740Z 2018/2118 16017G27KT P6SM SCT040 SCT120
      TEMPO 2020/2023 BKN120
     FM211100 17015G25KT P6SM OVC015=

USA.gov is the U.S. government's official web portal to all federal, state and local government web resources and services.